Louisville, KY (40201)

6:29 PM EDT on August 30, 2015 (GMT -0400)
APRSWXNET | | Change Station
CLOSE
Current Station
Personal Weather Station
Location: Louisville, KY
Elevation: 492 ft
Nearby Weather Stations

Elev 492 ft 38.22 °N, 85.75 °W | Updated 27 minutes ago

Mostly Cloudy
Mostly Cloudy
83 °F
Feels Like 88 °F
N
4
Wind Variable Wind from SSW
Gusts 11.0 mph

Today
High -- | Low -- °F
--% Chance of Precip.
Yesterday
High -- | Low -- °F
Precip. -- in
7:10 AM 8:16 PM
Full, 98% visible
Pressure 30.02 in
Visibility 9.0 miles
Clouds Few 5000 ft
Few 8000 ft
Scattered Clouds 12000 ft
Scattered Clouds 14000 ft
Mostly Cloudy 25000 ft
Heat Index 88 °F
Dew Point 71 °F
Humidity 67%
Rainfall in
Snow Depth Not available.
UV 1 out of 12
Pollen 9.50 out of 12
Air Quality Not available.
Flu Activity Not available.
METAR KSDF 302156Z 22007KT 9SM FEW050 FEW080 SCT120 SCT140 BKN250 28/21 A3004 RMK AO2 SLP166 T02830206
Pressure 30.02 in
Visibility 9.0 miles
Clouds Few 5000 ft
Few 8000 ft
Scattered Clouds 12000 ft
Scattered Clouds 14000 ft
Mostly Cloudy 25000 ft
Heat Index 88 °F
Dew Point 71 °F
Humidity 67%
Rainfall in
Snow Depth Not available.
UV 1 out of 12
Pollen 9.50 out of 12
Air Quality Not available.
Flu Activity Not available.
METAR KSDF 302156Z 22007KT 9SM FEW050 FEW080 SCT120 SCT140 BKN250 28/21 A3004 RMK AO2 SLP166 T02830206

10-Day Weather Forecast

×

Almanac

Astronomy

Aug. 30, 2015 Rise Set
Actual Time
Civil Twilight
Nautical Twilight
Astronomical Twilight
Moon
Length of Visible Light
Length of Day
Tomorrow will be .
, % of the Moon is Illuminated

Today's Extremes

State Highs State Lows

Community

WunderPhotos

Upload Photos

1,851,067 photos uploaded!

WunderBlogs® & News

Nearby

Air Quality

  Air Quality AQ Index Pollutant
Not available.

Snow Depth

Station Depth Elevation

Earthquake Activity

City Distance Mag. Time & Date
Minimum magnitude displayed is 2.5.

Coastal Water Temperatures

Place Temperature

Stations

Nearby Weather Stations

Station Location Temp. Windchill Dew Point Humidity Wind Precip. Elev Updated Type